Time;durP1;ratioP1;P1;durP2;ratioP2;P2;SDS_P1;SDS_P2;PMS_P1;PMS_P2;Temp;Humidity;BMP_temperature;BMP_pressure;BME280_temperature;BME280_humidity;BME280_pressure;Samples;Min_cycle;Max_cycle;Signal;HPM_P1;HPM_P2
2021/12/04 00:00:36;;;;;;;101.70;53.25;;;5.30;99.90;;;;;;5001799;28;20493;-62
2021/12/04 00:03:03;;;;;;;87.28;47.03;;;5.30;99.90;;;;;;5002015;28;20523;-62
2021/12/04 00:05:28;;;;;;;89.28;49.50;;;3.50;99.90;;;;;;5000275;28;20125;-62
2021/12/04 00:07:54;;;;;;;81.60;45.78;;;6.10;99.90;;;;;;4980585;28;20109;-62
2021/12/04 00:10:27;;;;;;;86.53;46.70;;;5.80;99.90;;;;;;5001568;28;20508;-62
2021/12/04 00:12:53;;;;;;;82.32;45.55;;;2.70;99.90;;;;;;5001729;28;20150;-63
2021/12/04 00:15:19;;;;;;;75.72;43.40;;;3.30;99.90;;;;;;4999717;28;20573;-62
2021/12/04 00:17:45;;;;;;;81.60;45.85;;;6.10;99.90;;;;;;4989877;28;20046;-62
2021/12/04 00:20:11;;;;;;;74.28;44.28;;;4.80;99.90;;;;;;4986627;28;20328;-62
2021/12/04 00:22:39;;;;;;;68.80;41.15;;;6.20;99.90;;;;;;4989967;28;20046;-60
2021/12/04 00:25:09;;;;;;;74.45;43.83;;;5.60;99.90;;;;;;5003153;28;20117;-61
2021/12/04 00:27:35;;;;;;;79.13;44.97;;;3.70;99.90;;;;;;5023170;28;20042;-62
2021/12/04 00:30:01;;;;;;;83.80;46.13;;;3.20;99.90;;;;;;5001451;28;20029;-62
2021/12/04 00:35:08;;;;;;;82.15;44.58;;;3.00;99.90;;;;;;5003033;28;20037;-62
2021/12/04 00:43:19;;;;;;;69.90;38.95;;;2.70;99.90;;;;;;5001096;28;20038;-61
2021/12/04 00:51:21;;;;;;;79.88;43.70;;;4.20;99.90;;;;;;5004602;28;20472;-61
2021/12/04 00:53:47;;;;;;;77.32;41.95;;;2.70;99.90;;;;;;5001137;28;20109;-63
2021/12/04 00:56:14;;;;;;;73.70;39.47;;;5.50;99.90;;;;;;5002718;28;20081;-62
2021/12/04 00:58:39;;;;;;;91.28;46.33;;;6.10;99.90;;;;;;5008022;28;20036;-61
2021/12/04 01:01:05;;;;;;;95.85;47.30;;;2.80;99.90;;;;;;5003712;28;20042;-61
2021/12/04 01:03:35;;;;;;;96.57;47.92;;;6.20;99.90;;;;;;4992483;28;20051;-62
2021/12/04 01:06:00;;;;;;;100.07;47.47;;;2.70;99.90;;;;;;5015526;28;20041;-62
2021/12/04 01:08:26;;;;;;;84.18;42.20;;;4.90;99.90;;;;;;4999622;28;20034;-62
2021/12/04 01:10:52;;;;;;;94.28;43.33;;;6.00;99.90;;;;;;5000477;28;20038;-61
2021/12/04 01:13:18;;;;;;;103.53;46.78;;;3.60;99.90;;;;;;4992460;28;20049;-61
2021/12/04 01:15:44;;;;;;;103.00;47.00;;;6.20;99.90;;;;;;5001450;28;20496;-62
2021/12/04 01:18:12;;;;;;;119.35;50.70;;;3.00;99.90;;;;;;4992059;28;20516;-61
2021/12/04 01:20:38;;;;;;;108.95;47.53;;;5.90;99.90;;;;;;5000550;28;20065;-61
2021/12/04 01:23:05;;;;;;;114.85;49.58;;;5.20;99.90;;;;;;5000074;28;20396;-60
2021/12/04 01:25:31;;;;;;;109.65;47.60;;;6.10;99.90;;;;;;4999969;28;20061;-63
2021/12/04 01:27:57;;;;;;;111.00;47.78;;;6.20;99.90;;;;;;5003686;28;20045;-61
2021/12/04 01:30:23;;;;;;;126.28;50.67;;;6.00;99.90;;;;;;5000294;28;20401;-60
2021/12/04 01:32:48;;;;;;;114.78;48.50;;;4.60;99.90;;;;;;4998289;28;20084;-60
2021/12/04 01:35:14;;;;;;;119.72;47.40;;;5.10;99.90;;;;;;5008810;28;20037;-61
2021/12/04 01:37:40;;;;;;;114.43;46.83;;;3.90;99.90;;;;;;5000658;28;20050;-62
2021/12/04 01:40:06;;;;;;;124.43;50.17;;;6.10;99.90;;;;;;4992004;28;20195;-61
2021/12/04 01:42:35;;;;;;;121.93;50.38;;;4.70;99.90;;;;;;5001460;28;20054;-61
2021/12/04 01:45:01;;;;;;;115.50;48.08;;;5.90;99.90;;;;;;4999483;28;20045;-60
2021/12/04 01:47:27;;;;;;;127.63;51.30;;;2.70;99.90;;;;;;5001379;28;20049;-61
2021/12/04 01:49:54;;;;;;;113.32;46.50;;;4.30;99.90;;;;;;5000117;28;20033;-62
2021/12/04 01:52:21;;;;;;;115.38;47.60;;;2.80;99.90;;;;;;5005726;28;20370;-61
2021/12/04 01:54:48;;;;;;;123.55;49.47;;;3.60;99.90;;;;;;4989203;28;20044;-62
2021/12/04 01:57:17;;;;;;;129.80;51.58;;;3.90;99.90;;;;;;4998320;28;20029;-62
2021/12/04 01:59:44;;;;;;;123.78;49.13;;;5.90;99.90;;;;;;5025428;28;20088;-62
2021/12/04 02:02:10;;;;;;;130.73;50.92;;;6.00;99.90;;;;;;4999212;28;20069;-61
2021/12/04 02:04:36;;;;;;;133.40;52.15;;;4.60;99.90;;;;;;5024618;28;20069;-61
2021/12/04 02:07:04;;;;;;;141.73;53.05;;;4.00;99.90;;;;;;4997112;28;20096;-61
2021/12/04 02:09:31;;;;;;;114.78;43.17;;;4.90;99.90;;;;;;5000905;28;20461;-63
2021/12/04 02:11:58;;;;;;;136.00;52.75;;;4.30;99.90;;;;;;5001320;28;20380;-62
2021/12/04 02:14:23;;;;;;;138.90;51.80;;;2.80;99.90;;;;;;4998396;28;20495;-61
2021/12/04 02:16:50;;;;;;;145.00;52.55;;;4.10;99.90;;;;;;5002002;28;20125;-61
2021/12/04 02:19:17;;;;;;;144.35;53.13;;;6.00;99.90;;;;;;4984591;28;20118;-62
2021/12/04 02:21:43;;;;;;;147.90;52.83;;;6.00;99.90;;;;;;4997731;28;20042;-62
2021/12/04 02:24:09;;;;;;;147.00;51.63;;;4.60;99.90;;;;;;4998427;28;20396;-62
2021/12/04 02:26:35;;;;;;;143.63;51.47;;;5.20;99.90;;;;;;4998878;28;20534;-61
2021/12/04 02:29:01;;;;;;;141.70;50.72;;;3.40;99.90;;;;;;5005252;28;20038;-63
2021/12/04 02:31:27;;;;;;;149.57;51.67;;;3.60;99.90;;;;;;5005019;28;20111;-61
2021/12/04 02:33:53;;;;;;;145.70;49.53;;;3.20;99.90;;;;;;5020661;28;20048;-62
2021/12/04 02:36:19;;;;;;;155.43;51.88;;;5.80;99.90;;;;;;5000016;28;20550;-61
2021/12/04 02:38:50;;;;;;;170.07;54.17;;;6.00;99.90;;;;;;4998030;28;20041;-61
2021/12/04 02:41:16;;;;;;;148.70;48.65;;;5.90;99.90;;;;;;5007083;28;20042;-62
2021/12/04 02:43:42;;;;;;;173.63;53.72;;;3.60;99.90;;;;;;4989171;28;20050;-62
2021/12/04 02:46:08;;;;;;;185.70;56.55;;;5.90;99.90;;;;;;4997958;28;20508;-62
2021/12/04 02:48:33;;;;;;;175.30;52.40;;;5.20;99.90;;;;;;4990725;28;20150;-62
2021/12/04 02:50:59;;;;;;;180.25;51.40;;;5.90;99.90;;;;;;4999467;28;20635;-61
2021/12/04 02:53:25;;;;;;;199.95;54.17;;;5.50;99.90;;;;;;4996196;28;20053;-68
2021/12/04 02:55:53;;;;;;;188.27;51.70;;;5.80;99.90;;;;;;5003707;28;20032;-61
2021/12/04 02:58:20;;;;;;;205.88;54.40;;;4.20;99.90;;;;;;4999407;28;20042;-61
2021/12/04 03:00:48;;;;;;;138.80;42.10;;;5.50;99.90;;;;;;5000266;28;20054;-60
2021/12/04 03:03:17;;;;;;;196.35;53.35;;;5.30;99.90;;;;;;4996704;28;20117;-61
2021/12/04 03:05:46;;;;;;;172.85;48.40;;;4.00;99.90;;;;;;5009059;28;20038;-62
2021/12/04 03:08:12;;;;;;;211.68;54.92;;;3.90;99.90;;;;;;5006043;28;20070;-62
2021/12/04 03:10:37;;;;;;;164.80;47.80;;;5.80;99.90;;;;;;5008995;28;20124;-63
2021/12/04 03:13:07;;;;;;;161.35;47.78;;;4.80;99.90;;;;;;5003069;28;20034;-62
2021/12/04 03:15:33;;;;;;;161.23;47.35;;;3.20;99.90;;;;;;5003000;28;20136;-62
2021/12/04 03:17:59;;;;;;;179.57;49.30;;;2.90;99.90;;;;;;5019197;28;20061;-63
2021/12/04 03:20:25;;;;;;;178.95;48.28;;;3.10;99.90;;;;;;5009085;28;20109;-62
2021/12/04 03:22:58;;;;;;;181.43;49.33;;;3.70;99.90;;;;;;5004598;28;20034;-62
2021/12/04 03:25:23;;;;;;;149.05;45.13;;;3.10;99.90;;;;;;5001464;28;20092;-62
2021/12/04 03:27:50;;;;;;;172.52;47.60;;;5.80;99.90;;;;;;5004636;28;20030;-62
2021/12/04 03:31:08;;;;;;;202.15;51.85;;;3.10;99.90;;;;;;5002027;28;20053;-62
2021/12/04 03:41:15;;;;;;;173.18;48.92;;;4.20;99.90;;;;;;5001101;28;20048;-62
2021/12/04 03:43:40;;;;;;;161.48;46.15;;;2.80;99.90;;;;;;4994043;28;20050;-62
2021/12/04 03:46:09;;;;;;;134.20;39.00;;;4.70;99.90;;;;;;4999860;28;20049;-62
2021/12/04 03:51:06;;;;;;;163.15;44.63;;;3.30;99.90;;;;;;5001319;28;20361;-62
2021/12/04 03:53:32;;;;;;;163.35;47.53;;;3.40;99.90;;;;;;5001923;28;20062;-62
2021/12/04 03:55:58;;;;;;;170.23;46.10;;;5.20;99.90;;;;;;5019050;28;20152;-62
2021/12/04 03:58:24;;;;;;;159.90;47.90;;;2.80;99.90;;;;;;5001448;28;20045;-62
2021/12/04 04:00:50;;;;;;;159.02;46.50;;;5.50;99.90;;;;;;5002927;28;20121;-61
2021/12/04 04:03:16;;;;;;;126.88;41.25;;;3.00;99.90;;;;;;5001201;28;20036;-62
2021/12/04 04:05:42;;;;;;;148.43;45.15;;;3.20;99.90;;;;;;5002524;28;20037;-62
2021/12/04 04:08:10;;;;;;;131.02;42.47;;;3.40;99.90;;;;;;5024596;28;20034;-62
2021/12/04 04:10:36;;;;;;;144.98;45.08;;;2.80;99.90;;;;;;5002792;28;20053;-62
2021/12/04 04:13:01;;;;;;;141.05;44.28;;;5.50;99.90;;;;;;5024488;28;20058;-62
2021/12/04 04:15:27;;;;;;;119.82;40.65;;;5.40;99.90;;;;;;5009627;28;20155;-63
2021/12/04 04:17:53;;;;;;;124.63;42.33;;;4.70;99.90;;;;;;5000095;28;20531;-62
2021/12/04 04:20:21;;;;;;;123.82;39.95;;;2.90;99.90;;;;;;5008498;28;20054;-62
2021/12/04 04:22:48;;;;;;;120.22;38.25;;;3.40;99.90;;;;;;5003955;28;20333;-62
2021/12/04 04:25:16;;;;;;;126.07;38.97;;;4.20;99.90;;;;;;5026499;28;20053;-62
2021/12/04 04:27:42;;;;;;;141.82;44.88;;;5.50;99.90;;;;;;5024639;28;20504;-62
2021/12/04 04:30:13;;;;;;;106.45;37.53;;;3.10;99.90;;;;;;4981627;28;20038;-62
2021/12/04 04:32:38;;;;;;;130.48;40.55;;;5.60;99.90;;;;;;5002086;28;20042;-62
2021/12/04 04:35:27;;;;;;;116.45;39.17;;;4.90;99.90;;;;;;5002793;28;20057;-62
2021/12/04 04:38:03;;;;;;;144.85;44.17;;;5.20;99.90;;;;;;4999003;28;20041;-62
2021/12/04 05:00:19;;;;;;;134.55;45.58;;;4.40;99.90;;;;;;4999353;28;20053;-61
2021/12/04 05:13:28;;;;;;;108.05;37.80;;;5.00;99.90;;;;;;4998884;28;20510;-62
2021/12/04 05:21:05;;;;;;;102.57;37.83;;;5.60;99.90;;;;;;5015705;28;20046;-62
2021/12/04 05:23:38;;;;;;;121.15;41.38;;;2.90;99.90;;;;;;4996398;28;20050;-62
2021/12/04 05:26:06;;;;;;;;;;;5.40;99.90;;;;;;5002485;28;20439;-61
2021/12/04 05:28:32;;;;;;;118.03;41.45;;;3.00;99.90;;;;;;5001519;28;19961;-61
2021/12/04 05:30:58;;;;;;;135.38;43.58;;;5.40;99.90;;;;;;4996416;28;20078;-63
2021/12/04 05:33:25;;;;;;;107.22;36.28;;;2.70;99.90;;;;;;5001191;28;20039;-62
2021/12/04 05:35:51;;;;;;;118.57;40.45;;;5.30;99.90;;;;;;5022740;28;20049;-61
2021/12/04 05:38:18;;;;;;;117.10;39.15;;;5.60;99.90;;;;;;4999821;28;20056;-61
2021/12/04 05:40:45;;;;;;;108.97;37.67;;;5.60;99.90;;;;;;4999278;28;20046;-61
2021/12/04 05:43:11;;;;;;;110.85;38.53;;;3.60;99.90;;;;;;5001899;28;20074;-62
2021/12/04 05:45:41;;;;;;;107.25;38.15;;;5.20;99.90;;;;;;5002990;28;20397;-61
2021/12/04 05:55:52;;;;;;;95.47;36.83;;;5.50;99.90;;;;;;5023925;28;20527;-63
2021/12/04 05:58:30;;;;;;;98.63;36.83;;;3.70;99.90;;;;;;5005491;28;20081;-62
2021/12/04 06:01:00;;;;;;;101.97;37.25;;;5.10;99.90;;;;;;5000678;28;20536;-62
2021/12/04 06:03:25;;;;;;;95.68;35.47;;;5.40;99.90;;;;;;5014326;28;20500;-62
2021/12/04 06:05:51;;;;;;;92.80;34.42;;;5.40;99.90;;;;;;4999858;28;20418;-63
2021/12/04 06:08:19;;;;;;;100.20;36.38;;;4.40;99.90;;;;;;5023217;28;20148;-63
2021/12/04 06:10:46;;;;;;;99.00;36.97;;;2.70;99.90;;;;;;4996530;28;20046;-63
2021/12/04 06:13:12;;;;;;;92.43;34.50;;;4.70;99.90;;;;;;4994644;28;20046;-63
2021/12/04 06:15:37;;;;;;;89.95;35.85;;;3.20;99.90;;;;;;4997842;28;20460;-63
2021/12/04 06:18:03;;;;;;;89.10;34.05;;;3.90;99.90;;;;;;4988268;28;20061;-62
2021/12/04 06:23:14;;;;;;;70.47;30.40;;;3.50;99.90;;;;;;4995980;28;20042;-62
2021/12/04 06:25:41;;;;;;;76.03;31.70;;;4.80;99.90;;;;;;4998825;28;20038;-62
2021/12/04 06:28:07;;;;;;;75.85;31.02;;;4.30;99.90;;;;;;4999711;28;20088;-62
2021/12/04 06:30:38;;;;;;;80.00;32.15;;;3.90;99.90;;;;;;4989798;28;20030;-62
2021/12/04 06:33:06;;;;;;;89.00;33.95;;;5.40;99.90;;;;;;5007184;28;20100;-62
2021/12/04 06:35:32;;;;;;;80.97;32.85;;;2.60;99.90;;;;;;5001662;28;20050;-63
2021/12/04 06:38:00;;;;;;;81.57;33.80;;;3.70;99.90;;;;;;4997568;28;20030;-62
2021/12/04 06:40:26;;;;;;;65.78;29.63;;;2.60;99.90;;;;;;4998133;28;20046;-63
2021/12/04 06:42:54;;;;;;;68.85;29.85;;;5.40;99.90;;;;;;4996054;28;20065;-63
2021/12/04 06:45:20;;;;;;;68.63;30.13;;;4.20;99.90;;;;;;4999793;28;20124;-63
2021/12/04 06:47:51;;;;;;;74.93;31.63;;;4.80;99.90;;;;;;5022860;28;20129;-63
2021/12/04 06:53:11;;;;;;;69.65;31.63;;;2.70;99.90;;;;;;4998865;28;20085;-63
2021/12/04 06:55:40;;;;;;;77.63;31.45;;;5.10;99.90;;;;;;4981021;28;20089;-63
2021/12/04 06:58:06;;;;;;;72.55;32.45;;;3.30;99.90;;;;;;4997934;28;20046;-64
2021/12/04 07:00:32;;;;;;;71.68;31.70;;;4.90;99.90;;;;;;4996241;28;20052;-63
2021/12/04 07:02:58;;;;;;;74.43;32.97;;;2.60;99.90;;;;;;4996350;28;20149;-63
2021/12/04 07:05:24;;;;;;;75.03;33.00;;;5.30;99.90;;;;;;4997066;28;20412;-63
2021/12/04 07:07:49;;;;;;;72.95;30.67;;;5.30;99.90;;;;;;5022665;28;20385;-63
2021/12/04 07:10:15;;;;;;;76.38;31.58;;;5.60;99.90;;;;;;4996156;28;20077;-63
2021/12/04 07:12:41;;;;;;;67.93;30.35;;;3.60;99.90;;;;;;4987794;28;20538;-63
2021/12/04 07:15:10;;;;;;;67.55;29.52;;;5.40;99.90;;;;;;4995457;28;20069;-63
2021/12/04 07:17:36;;;;;;;73.20;30.20;;;5.20;99.90;;;;;;4997639;28;20033;-63
2021/12/04 07:20:06;;;;;;;72.95;29.90;;;3.70;99.90;;;;;;4999946;28;20112;-63
2021/12/04 07:22:32;;;;;;;74.60;30.17;;;5.20;99.90;;;;;;4998963;28;20116;-62
2021/12/04 07:24:58;;;;;;;70.88;30.70;;;2.90;99.90;;;;;;4998326;28;20061;-63
2021/12/04 07:27:24;;;;;;;61.90;26.42;;;5.60;99.90;;;;;;4988849;28;20081;-62
2021/12/04 07:29:51;;;;;;;60.45;26.25;;;5.60;99.90;;;;;;4989385;28;20114;-62
2021/12/04 07:32:16;;;;;;;63.15;29.65;;;4.60;99.90;;;;;;4996963;28;20485;-61
2021/12/04 07:34:42;;;;;;;67.57;30.52;;;4.60;99.90;;;;;;5020733;28;20050;-62
2021/12/04 07:37:08;;;;;;;62.13;28.17;;;4.80;99.90;;;;;;4996645;28;20048;-62
2021/12/04 07:39:34;;;;;;;63.30;27.77;;;3.40;99.90;;;;;;5004998;28;20515;-62
2021/12/04 07:41:59;;;;;;;67.47;30.67;;;4.90;99.90;;;;;;4994243;28;20080;-62
2021/12/04 07:44:25;;;;;;;67.38;30.25;;;5.10;99.90;;;;;;4996367;28;20137;-62
2021/12/04 07:46:52;;;;;;;63.25;29.70;;;5.00;99.90;;;;;;4989434;28;20073;-62
2021/12/04 07:49:17;;;;;;;59.15;27.73;;;3.70;99.90;;;;;;4997334;28;20121;-62
2021/12/04 07:51:44;;;;;;;66.57;31.13;;;4.30;99.90;;;;;;4985179;28;20121;-62
2021/12/04 07:54:10;;;;;;;64.65;30.27;;;3.80;99.90;;;;;;4992095;28;20061;-63
2021/12/04 07:56:36;;;;;;;67.10;30.15;;;5.70;99.90;;;;;;4992454;28;20042;-61
2021/12/04 07:59:02;;;;;;;66.55;31.73;;;3.70;99.90;;;;;;5022820;28;20038;-62
2021/12/04 08:01:28;;;;;;;66.50;30.80;;;5.50;99.90;;;;;;5001016;28;20050;-62
2021/12/04 08:03:54;;;;;;;72.60;31.67;;;5.70;99.90;;;;;;5006502;28;20043;-61
2021/12/04 08:06:20;;;;;;;73.90;31.98;;;5.70;99.90;;;;;;5009052;28;20064;-61
2021/12/04 08:08:46;;;;;;;74.20;31.98;;;5.10;99.90;;;;;;5000006;28;20087;-61
2021/12/04 08:11:11;;;;;;;74.32;31.73;;;2.60;99.90;;;;;;5023670;28;20042;-61
2021/12/04 08:13:37;;;;;;;71.60;29.90;;;4.90;99.90;;;;;;5000471;28;20506;-61
2021/12/04 08:16:03;;;;;;;73.43;31.13;;;5.50;99.90;;;;;;5000292;28;20045;-61
2021/12/04 08:18:29;;;;;;;75.68;30.55;;;3.90;99.90;;;;;;4990168;28;20046;-61
2021/12/04 08:20:54;;;;;;;70.28;29.05;;;3.90;99.90;;;;;;4996350;28;20061;-60
2021/12/04 08:23:20;;;;;;;80.50;31.48;;;5.70;99.90;;;;;;5005720;28;20157;-60
2021/12/04 08:25:48;;;;;;;77.97;30.23;;;3.10;99.90;;;;;;5001235;28;20598;-61
2021/12/04 08:28:14;;;;;;;84.50;31.65;;;5.00;99.90;;;;;;5007346;28;20493;-62
2021/12/04 08:30:40;;;;;;;76.40;26.98;;;5.60;99.90;;;;;;5009346;28;20446;-61
2021/12/04 08:33:09;;;;;;;88.43;29.95;;;5.70;99.90;;;;;;4991213;28;20044;-61
2021/12/04 08:35:39;;;;;;;82.53;27.83;;;2.80;99.90;;;;;;5011141;28;20060;-62
2021/12/04 08:38:09;;;;;;;90.45;30.05;;;3.80;99.90;;;;;;5026988;28;20041;-61
2021/12/04 08:40:36;;;;;;;80.65;27.20;;;5.50;99.90;;;;;;5026761;28;20041;-62
2021/12/04 08:43:02;;;;;;;87.50;30.15;;;2.70;99.90;;;;;;5026684;28;20585;-61
2021/12/04 08:45:29;;;;;;;87.85;29.58;;;5.60;99.90;;;;;;5009988;28;20038;-62
2021/12/04 08:47:54;;;;;;;100.20;30.92;;;5.40;99.90;;;;;;5010011;28;20049;-61
2021/12/04 08:50:25;;;;;;;78.32;28.60;;;4.90;99.90;;;;;;5010178;28;20046;-61
2021/12/04 08:52:51;;;;;;;76.57;29.60;;;5.70;99.90;;;;;;5010245;28;20396;-62
2021/12/04 08:55:18;;;;;;;66.90;25.38;;;5.70;99.90;;;;;;5010039;28;20049;-62
2021/12/04 08:57:44;;;;;;;76.35;30.40;;;5.60;99.90;;;;;;4993938;28;20056;-61
2021/12/04 09:00:15;;;;;;;55.75;24.70;;;3.50;99.90;;;;;;4993804;28;20120;-62
2021/12/04 09:02:42;;;;;;;60.88;28.70;;;5.20;99.90;;;;;;5011486;28;20048;-62
2021/12/04 09:05:09;;;;;;;56.10;25.52;;;3.30;99.90;;;;;;5011296;28;20496;-62
2021/12/04 09:07:35;;;;;;;62.03;27.23;;;5.70;99.90;;;;;;5011373;28;20100;-62
2021/12/04 09:10:00;;;;;;;54.03;24.98;;;2.90;99.90;;;;;;5009705;28;20488;-62
2021/12/04 09:12:28;;;;;;;52.20;25.85;;;5.60;99.90;;;;;;5009840;28;20065;-62
2021/12/04 09:14:56;;;;;;;55.00;26.92;;;4.50;99.90;;;;;;5009939;28;20472;-62
2021/12/04 09:17:22;;;;;;;50.58;24.13;;;4.80;99.90;;;;;;5009635;28;20049;-62
2021/12/04 09:19:49;;;;;;;46.60;24.30;;;5.20;99.90;;;;;;5009701;28;20052;-61
2021/12/04 09:22:16;;;;;;;44.15;23.70;;;4.50;99.90;;;;;;5009751;28;20439;-61
2021/12/04 09:24:47;;;;;;;45.80;23.52;;;5.50;99.90;;;;;;5010751;28;20115;-62
2021/12/04 09:27:42;;;;;;;42.88;23.05;;;5.20;99.90;;;;;;4993482;28;20045;-61
2021/12/04 09:30:20;;;;;;;42.58;22.50;;;3.30;99.90;;;;;;5009199;28;20069;-61
2021/12/04 10:34:42;;;;;;;28.33;22.02;;;5.90;99.90;;;;;;5008334;28;20141;-61
2021/12/04 10:37:14;;;;;;;30.48;21.10;;;5.70;99.90;;;;;;4991782;28;20462;-61
2021/12/04 10:39:41;;;;;;;32.17;21.15;;;5.80;99.90;;;;;;5024804;28;20042;-62
2021/12/04 10:42:15;;;;;;;30.90;22.35;;;5.10;99.90;;;;;;4992289;28;20081;-62
2021/12/04 10:44:47;;;;;;;29.58;21.65;;;5.80;99.90;;;;;;5004427;28;20438;-62
2021/12/04 10:47:17;;;;;;;29.55;22.85;;;5.20;99.90;;;;;;4973363;28;20054;-62
2021/12/04 10:55:21;;;;;;;27.50;20.42;;;3.70;99.90;;;;;;5022601;28;20046;-61
2021/12/04 11:00:33;;;;;;;26.33;17.88;;;3.60;99.90;;;;;;5021850;28;20074;-61
2021/12/04 11:03:16;;;;;;;26.58;20.15;;;3.50;99.90;;;;;;4989450;28;20057;-60
2021/12/04 11:06:18;;;;;;;26.13;19.38;;;5.80;99.90;;;;;;4990775;28;20118;-60
2021/12/04 11:38:42;;;;;;;28.27;20.08;;;6.30;99.90;;;;;;5025934;28;20053;-61
2021/12/04 11:43:57;;;;;;;35.03;23.27;;;4.20;99.90;;;;;;5025356;28;20382;-60
2021/12/04 11:46:40;;;;;;;36.08;23.10;;;4.40;99.90;;;;;;5011134;28;20072;-61
2021/12/04 11:49:14;;;;;;;35.30;22.03;;;3.30;99.90;;;;;;5013665;28;20038;-61
2021/12/04 11:51:56;;;;;;;42.33;24.77;;;4.70;99.90;;;;;;5012082;28;20038;-61
2021/12/04 11:54:28;;;;;;;42.65;23.60;;;4.60;99.90;;;;;;5013325;28;20389;-61
2021/12/04 11:57:07;;;;;;;48.47;25.27;;;3.40;99.90;;;;;;5012000;28;20049;-61
2021/12/04 11:59:35;;;;;;;51.60;26.67;;;6.10;99.90;;;;;;5011823;28;20049;-61
2021/12/04 12:02:02;;;;;;;53.42;26.75;;;6.30;99.90;;;;;;5012007;28;20057;-61
2021/12/04 12:04:53;;;;;;;67.38;31.90;;;5.30;99.90;;;;;;5028671;28;20492;-61
2021/12/04 12:07:22;;;;;;;60.53;29.50;;;3.10;99.90;;;;;;5008873;28;20064;-60
2021/12/04 12:10:01;;;;;;;76.68;33.63;;;3.40;99.90;;;;;;5012359;28;20172;-61
2021/12/04 12:12:34;;;;;;;65.20;30.92;;;5.00;99.90;;;;;;5029053;28;20117;-61
2021/12/04 12:15:04;;;;;;;69.60;33.67;;;6.10;99.90;;;;;;5013464;28;20042;-61
2021/12/04 12:17:34;;;;;;;58.70;28.73;;;5.40;99.90;;;;;;5012378;28;20050;-61
2021/12/04 12:20:03;;;;;;;59.38;29.50;;;5.40;99.90;;;;;;5013527;28;20062;-62
2021/12/04 12:22:38;;;;;;;67.70;32.50;;;5.00;99.90;;;;;;5011246;28;20527;-61
2021/12/04 12:33:44;;;;;;;66.65;33.88;;;3.30;99.90;;;;;;5010917;28;20488;-61
2021/12/04 12:36:13;;;;;;;72.55;35.20;;;3.20;99.90;;;;;;5012306;28;20408;-62
2021/12/04 12:38:41;;;;;;;77.25;36.15;;;3.90;99.90;;;;;;4993937;28;20049;-61
2021/12/04 12:41:16;;;;;;;79.93;38.20;;;3.70;99.90;;;;;;5010222;28;20129;-61
2021/12/04 12:43:59;;;;;;;67.07;33.80;;;5.60;99.90;;;;;;5009324;28;20103;-62
2021/12/04 12:46:37;;;;;;;68.20;35.95;;;6.20;99.90;;;;;;5006974;28;20396;-62
2021/12/04 12:49:05;;;;;;;70.28;37.30;;;3.40;99.90;;;;;;4992391;28;20046;-62
2021/12/04 12:51:34;;;;;;;72.70;37.25;;;6.30;99.90;;;;;;4974128;28;20082;-62
2021/12/04 12:54:04;;;;;;;76.15;38.63;;;6.30;99.90;;;;;;4990483;28;20050;-61
2021/12/04 12:56:32;;;;;;;74.78;38.80;;;5.50;99.90;;;;;;4974269;28;20042;-62
2021/12/04 12:59:19;;;;;;;70.63;38.05;;;5.60;99.90;;;;;;5006735;28;20132;-62
2021/12/04 13:12:55;;;;;;;59.85;35.55;;;4.80;99.90;;;;;;5004337;28;20469;-62
2021/12/04 13:15:32;;;;;;;58.83;34.40;;;5.80;99.90;;;;;;4990984;28;20046;-62
2021/12/04 13:18:12;;;;;;;59.42;35.05;;;4.80;99.90;;;;;;4990071;28;20081;-62
2021/12/04 13:20:38;;;;;;;58.92;35.38;;;3.30;99.90;;;;;;4990618;28;20125;-62
2021/12/04 13:23:10;;;;;;;53.85;32.63;;;5.90;99.90;;;;;;4992120;28;20050;-62
2021/12/04 13:25:36;;;;;;;49.35;29.58;;;6.10;99.90;;;;;;4990052;28;20056;-62
2021/12/04 13:30:27;;;;;;;57.90;34.35;;;6.00;99.90;;;;;;4991529;28;20035;-62
2021/12/04 13:32:53;;;;;;;55.08;31.85;;;4.50;99.90;;;;;;5005913;28;20073;-62
2021/12/04 13:35:22;;;;;;;52.40;32.17;;;3.60;99.90;;;;;;4973389;28;20477;-62
2021/12/04 13:37:50;;;;;;;48.33;30.25;;;3.50;99.90;;;;;;4973815;28;20456;-61
2021/12/04 13:40:19;;;;;;;42.58;26.45;;;4.60;99.90;;;;;;4973621;28;20058;-61
2021/12/04 13:42:46;;;;;;;42.75;28.48;;;6.30;99.90;;;;;;4989570;28;20034;-61
2021/12/04 13:45:15;;;;;;;46.75;31.00;;;3.50;99.90;;;;;;4996567;28;20058;-61
2021/12/04 13:47:42;;;;;;;47.80;29.75;;;3.40;99.90;;;;;;5008562;28;20117;-61
2021/12/04 13:52:55;;;;;;;48.35;30.88;;;4.20;99.90;;;;;;5008743;28;20057;-62
2021/12/04 13:55:23;;;;;;;56.47;33.97;;;4.50;99.90;;;;;;5010094;28;20517;-62
2021/12/04 13:57:50;;;;;;;53.15;32.58;;;5.90;99.90;;;;;;5010359;28;20034;-62
2021/12/04 14:00:17;;;;;;;57.75;34.70;;;4.40;99.90;;;;;;5009166;28;20049;-62
2021/12/04 14:02:44;;;;;;;58.03;35.25;;;5.80;99.90;;;;;;5009028;28;20488;-62
2021/12/04 14:05:19;;;;;;;55.30;35.00;;;4.60;99.90;;;;;;5008556;28;20053;-62
2021/12/04 14:07:57;;;;;;;55.83;33.22;;;5.90;99.90;;;;;;5010134;28;20049;-62
2021/12/04 14:10:31;;;;;;;56.53;34.58;;;3.40;99.90;;;;;;5008626;28;20052;-62
2021/12/04 14:13:02;;;;;;;55.60;32.50;;;3.20;99.90;;;;;;5010085;28;20046;-62
2021/12/04 14:15:28;;;;;;;57.95;33.88;;;6.30;99.90;;;;;;4991893;28;20045;-62
2021/12/04 14:18:00;;;;;;;63.20;36.47;;;5.20;99.90;;;;;;5009870;28;20041;-62
2021/12/04 14:20:27;;;;;;;58.72;33.20;;;4.70;99.90;;;;;;5008520;28;20044;-62
2021/12/04 14:22:56;;;;;;;67.78;36.75;;;5.50;99.90;;;;;;5009850;28;20068;-62
2021/12/04 14:25:24;;;;;;;63.92;35.88;;;3.90;99.90;;;;;;5008317;28;20085;-62
2021/12/04 14:27:51;;;;;;;66.13;36.80;;;6.20;99.90;;;;;;5025056;28;20038;-62
2021/12/04 14:30:38;;;;;;;76.07;39.13;;;4.10;99.90;;;;;;4992473;28;20042;-62
2021/12/04 14:33:07;;;;;;;76.50;39.03;;;6.20;99.90;;;;;;5008252;28;20139;-61
2021/12/04 14:35:39;;;;;;;88.47;42.08;;;5.80;99.90;;;;;;5009710;28;20072;-61
2021/12/04 14:38:12;;;;;;;88.45;42.53;;;4.10;99.90;;;;;;5008329;28;20042;-62
2021/12/04 14:40:45;;;;;;;96.90;42.55;;;6.20;99.90;;;;;;5008553;28;20053;-61
2021/12/04 14:43:16;;;;;;;107.90;44.60;;;4.30;99.90;;;;;;5007938;28;20432;-61
2021/12/04 14:45:48;;;;;;;105.20;42.03;;;3.20;99.90;;;;;;5009275;28;20435;-61
2021/12/04 14:48:36;;;;;;;108.80;44.03;;;6.20;99.90;;;;;;5009241;28;20046;-61
2021/12/04 14:51:06;;;;;;;114.35;43.85;;;3.30;99.90;;;;;;5008819;28;20042;-62
2021/12/04 14:53:35;;;;;;;101.72;41.55;;;5.00;99.90;;;;;;5008058;28;20058;-62
2021/12/04 14:56:06;;;;;;;104.40;43.20;;;4.30;99.90;;;;;;5009801;28;20092;-62
2021/12/04 14:58:32;;;;;;;112.60;42.20;;;4.90;99.90;;;;;;5008324;28;20088;-61
2021/12/04 15:01:04;;;;;;;105.28;45.13;;;6.00;99.90;;;;;;5011873;28;20504;-62
2021/12/04 15:03:41;;;;;;;120.40;47.50;;;5.80;99.90;;;;;;5013246;28;20502;-62
2021/12/04 15:06:11;;;;;;;110.78;44.67;;;3.30;99.90;;;;;;5013431;28;20125;-61
2021/12/04 15:08:44;;;;;;;110.22;45.15;;;3.80;99.90;;;;;;5008700;28;20104;-61
2021/12/04 15:11:14;;;;;;;92.63;40.47;;;3.30;99.90;;;;;;4976010;28;20046;-61
2021/12/04 15:14:04;;;;;;;104.30;45.95;;;3.30;99.90;;;;;;4992459;28;20061;-61
2021/12/04 15:19:46;;;;;;;100.82;42.05;;;5.80;99.90;;;;;;4994494;28;20539;-62
2021/12/04 15:22:19;;;;;;;91.95;40.83;;;4.90;99.90;;;;;;5007580;28;20536;-61
2021/12/04 15:24:48;;;;;;;102.07;42.28;;;5.90;99.90;;;;;;5026164;28;20054;-62
2021/12/04 15:27:18;;;;;;;100.85;42.38;;;6.10;99.90;;;;;;5011321;28;20506;-62
2021/12/04 15:29:46;;;;;;;88.00;40.35;;;6.10;99.90;;;;;;5011297;28;20056;-61
2021/12/04 15:32:14;;;;;;;87.68;40.05;;;6.10;99.90;;;;;;5011280;28;20519;-61
2021/12/04 15:34:48;;;;;;;81.20;38.17;;;5.40;99.90;;;;;;5010728;28;20073;-61
2021/12/04 15:37:25;;;;;;;79.85;38.63;;;3.30;99.90;;;;;;5011162;28;20034;-61
2021/12/04 15:39:51;;;;;;;80.43;39.53;;;5.40;99.90;;;;;;5011734;28;20400;-60
2021/12/04 15:42:24;;;;;;;83.55;39.45;;;6.10;99.90;;;;;;4995657;28;20041;-61
2021/12/04 15:47:26;;;;;;;70.28;36.75;;;6.00;99.90;;;;;;5013175;28;20096;-61
2021/12/04 15:52:49;;;;;;;66.45;34.38;;;4.90;99.90;;;;;;5013404;28;20124;-60
2021/12/04 15:55:25;;;;;;;69.20;36.53;;;4.70;99.90;;;;;;5013077;28;20104;-61
2021/12/04 15:58:15;;;;;;;73.85;37.58;;;3.40;99.90;;;;;;5028606;28;20045;-60
2021/12/04 16:00:45;;;;;;;76.70;38.83;;;3.30;99.90;;;;;;5011660;28;20053;-60
2021/12/04 16:03:15;;;;;;;75.88;37.85;;;3.30;99.90;;;;;;5011532;28;20053;-61
2021/12/04 16:05:51;;;;;;;71.65;37.92;;;6.00;99.90;;;;;;5013291;28;20033;-60
2021/12/04 16:08:20;;;;;;;79.88;39.25;;;6.20;99.90;;;;;;5012682;28;20068;-60
2021/12/04 16:10:48;;;;;;;84.10;40.55;;;5.10;99.90;;;;;;5011924;28;20057;-62